Time;durP1;ratioP1;P1;durP2;ratioP2;P2;SDS_P1;SDS_P2;PMS_P1;PMS_P2;Temp;Humidity;BMP_temperature;BMP_pressure;BME280_temperature;BME280_humidity;BME280_pressure;Samples;Min_cycle;Max_cycle;Signal;HPM_P1;HPM_P2
2022/01/25 00:08:51;;;;;;;;;;;20.60;32.20;;;;;;467118;255;1216;-39
2022/01/25 00:15:05;;;;;;;;;;;20.60;32.20;;;;;;466230;255;2341;-39
2022/01/25 00:15:32;;;;;;;;;;;20.60;32.20;;;;;;466667;255;1921;-40
2022/01/25 00:24:46;;;;;;;;;;;20.60;32.20;;;;;;466992;255;1064;-39
2022/01/25 00:26:36;;;;;;;;;;;20.60;32.20;;;;;;465643;255;1413;-39
2022/01/25 00:28:45;;;;;;;;;;;20.60;32.30;;;;;;466889;255;2204;-39
2022/01/25 00:30:57;;;;;;;;;;;20.60;32.20;;;;;;466656;255;2276;-39
2022/01/25 00:32:45;;;;;;;;;;;20.60;32.20;;;;;;466214;255;1689;-39
2022/01/25 00:34:46;;;;;;;;;;;20.60;32.20;;;;;;467113;254;1044;-39
2022/01/25 00:36:47;;;;;;;;;;;20.60;32.30;;;;;;466611;254;2197;-39
2022/01/25 00:38:49;;;;;;;;;;;20.60;32.20;;;;;;466676;254;1133;-39
2022/01/25 00:40:50;;;;;;;;;;;20.60;32.30;;;;;;466670;254;1124;-39
2022/01/25 00:42:51;;;;;;;;;;;20.50;32.30;;;;;;466681;254;1231;-39
2022/01/25 00:44:54;;;;;;;;;;;20.60;32.30;;;;;;467123;254;1073;-39
2022/01/25 00:46:54;;;;;;;;;;;20.60;32.30;;;;;;466836;255;2194;-40
2022/01/25 00:48:59;;;;;;;;;;;20.60;32.30;;;;;;466668;254;1239;-40
2022/01/25 00:51:13;;;;;;;;;;;20.60;32.30;;;;;;466608;255;2131;-39
2022/01/25 00:55:17;;;;;;;;;;;20.60;32.30;;;;;;467272;254;1107;-39
2022/01/25 00:57:18;;;;;;;;;;;20.60;32.30;;;;;;466700;254;2201;-39
2022/01/25 00:59:20;;;;;;;;;;;20.60;32.30;;;;;;466977;254;1006;-39
2022/01/25 01:01:21;;;;;;;;;;;20.60;32.30;;;;;;466605;254;1265;-40
2022/01/25 01:03:22;;;;;;;;;;;20.70;32.20;;;;;;466664;254;1172;-39
2022/01/25 01:05:24;;;;;;;;;;;20.90;31.80;;;;;;466615;254;1092;-40
2022/01/25 01:07:25;;;;;;;;;;;21.00;31.50;;;;;;466938;255;2469;-39
2022/01/25 01:09:28;;;;;;;;;;;21.20;31.30;;;;;;467118;254;1106;-40
2022/01/25 01:11:32;;;;;;;;;;;21.30;31.10;;;;;;466584;254;2057;-40
2022/01/25 01:13:54;;;;;;;;;;;21.40;31.00;;;;;;466540;255;1557;-40
2022/01/25 01:15:57;;;;;;;;;;;21.40;30.90;;;;;;466383;255;2250;-40
2022/01/25 01:29:45;;;;;;;;;;;21.70;30.50;;;;;;466632;255;1053;-39
2022/01/25 01:31:50;;;;;;;;;;;21.70;30.50;;;;;;465821;255;2170;-40
2022/01/25 01:34:08;;;;;;;;;;;21.70;30.50;;;;;;465874;255;2283;-39
2022/01/25 01:36:48;;;;;;;;;;;21.80;30.40;;;;;;465435;255;2591;-39
2022/01/25 01:38:25;;;;;;;;;;;21.80;30.40;;;;;;465295;255;1385;-40
2022/01/25 01:42:57;;;;;;;;;;;21.90;30.30;;;;;;450419;263;1208;-40
2022/01/25 01:45:08;;;;;;;;;;;21.90;30.30;;;;;;449905;264;1873;-39
2022/01/25 01:47:08;;;;;;;;;;;22.00;30.30;;;;;;466594;255;2152;-39
2022/01/25 01:49:09;;;;;;;;;;;22.00;30.30;;;;;;466712;255;2219;-40
2022/01/25 01:51:15;;;;;;;;;;;22.00;30.20;;;;;;466443;255;2150;-40
2022/01/25 01:53:09;;;;;;;;;;;22.00;30.20;;;;;;466453;255;2370;-39
2022/01/25 01:55:12;;;;;;;;;;;22.00;30.20;;;;;;466979;254;1037;-39
2022/01/25 01:57:12;;;;;;;;;;;22.00;30.10;;;;;;466543;255;2278;-40
2022/01/25 01:59:13;;;;;;;;;;;22.00;30.10;;;;;;466708;254;1241;-40
2022/01/25 02:01:14;;;;;;;;;;;22.00;30.10;;;;;;466845;254;1410;-40
2022/01/25 02:03:16;;;;;;;;;;;22.10;30.10;;;;;;466658;254;1076;-40
2022/01/25 02:05:17;;;;;;;;;;;22.10;30.10;;;;;;466976;254;1070;-40
2022/01/25 02:07:18;;;;;;;;;;;22.10;30.10;;;;;;466584;254;1219;-39
2022/01/25 02:09:20;;;;;;;;;;;22.10;30.10;;;;;;466684;254;1067;-40
2022/01/25 02:11:21;;;;;;;;;;;22.10;30.10;;;;;;466962;254;1404;-39
2022/01/25 02:13:22;;;;;;;;;;;22.10;30.00;;;;;;466652;254;1340;-39
2022/01/25 02:15:25;;;;;;;;;;;22.10;30.10;;;;;;467045;254;2264;-39
2022/01/25 02:17:50;;;;;;;;;;;22.10;30.10;;;;;;466589;254;2636;-40
2022/01/25 02:24:07;;;;;;;;;;;22.20;30.00;;;;;;467096;255;1063;-39
2022/01/25 02:26:08;;;;;;;;;;;22.20;30.00;;;;;;466706;254;1084;-40
2022/01/25 02:28:09;;;;;;;;;;;22.20;30.00;;;;;;466989;254;1348;-40
2022/01/25 02:30:11;;;;;;;;;;;22.20;30.00;;;;;;466661;254;1081;-40
2022/01/25 02:32:12;;;;;;;;;;;22.30;30.00;;;;;;467102;254;1027;-40
2022/01/25 02:34:13;;;;;;;;;;;22.30;30.00;;;;;;467041;254;1111;-39
2022/01/25 02:36:15;;;;;;;;;;;22.30;30.00;;;;;;466863;254;1208;-40
2022/01/25 02:38:16;;;;;;;;;;;22.30;30.00;;;;;;466683;254;2137;-40
2022/01/25 02:40:17;;;;;;;;;;;22.30;30.00;;;;;;466827;254;1235;-39
2022/01/25 02:42:18;;;;;;;;;;;22.30;30.00;;;;;;466878;254;1190;-39
2022/01/25 02:44:24;;;;;;;;;;;22.30;30.00;;;;;;466828;254;1257;-40
2022/01/25 02:48:29;;;;;;;;;;;22.30;30.00;;;;;;466389;255;2322;-40
2022/01/25 02:48:31;;;;;;;;;;;22.30;30.00;;;;;;465232;255;1180;-40
2022/01/25 02:50:33;;;;;;;;;;;22.40;30.00;;;;;;467022;254;1345;-39
2022/01/25 02:52:34;;;;;;;;;;;22.40;30.00;;;;;;466653;254;1156;-40
2022/01/25 02:54:38;;;;;;;;;;;22.30;30.00;;;;;;467113;254;1228;-40
2022/01/25 02:56:37;;;;;;;;;;;22.30;30.00;;;;;;466549;254;2142;-40
2022/01/25 02:58:38;;;;;;;;;;;22.40;30.00;;;;;;466692;254;1163;-40
2022/01/25 03:00:39;;;;;;;;;;;22.30;30.00;;;;;;466981;254;1083;-40
2022/01/25 03:02:41;;;;;;;;;;;22.40;30.00;;;;;;466755;254;1203;-40
2022/01/25 03:04:42;;;;;;;;;;;22.40;30.00;;;;;;466751;254;1016;-40
2022/01/25 03:06:43;;;;;;;;;;;22.40;30.00;;;;;;466518;254;1212;-40
2022/01/25 03:08:45;;;;;;;;;;;22.40;30.00;;;;;;466588;254;1234;-40
2022/01/25 03:10:47;;;;;;;;;;;22.40;30.00;;;;;;467034;254;1127;-39
2022/01/25 03:12:51;;;;;;;;;;;22.40;30.00;;;;;;466599;255;2223;-40
2022/01/25 03:15:10;;;;;;;;;;;22.40;29.90;;;;;;466464;255;1254;-40
2022/01/25 03:17:05;;;;;;;;;;;22.40;30.00;;;;;;465196;255;2197;-40
2022/01/25 03:18:56;;;;;;;;;;;22.40;30.00;;;;;;465933;255;2354;-40
2022/01/25 03:21:01;;;;;;;;;;;22.40;30.00;;;;;;466587;254;2296;-40
2022/01/25 03:23:05;;;;;;;;;;;22.40;30.00;;;;;;466609;255;1271;-40
2022/01/25 03:25:01;;;;;;;;;;;22.40;30.00;;;;;;466419;255;2086;-40
2022/01/25 03:27:03;;;;;;;;;;;22.40;29.90;;;;;;466663;254;1315;-40
2022/01/25 03:29:04;;;;;;;;;;;22.50;30.00;;;;;;466931;254;1204;-40
2022/01/25 03:31:05;;;;;;;;;;;22.50;30.00;;;;;;466757;254;1377;-40
2022/01/25 03:33:07;;;;;;;;;;;22.50;30.00;;;;;;466766;254;1051;-40
2022/01/25 03:35:08;;;;;;;;;;;22.50;30.00;;;;;;466857;254;1305;-40
2022/01/25 03:37:09;;;;;;;;;;;22.50;29.90;;;;;;466967;254;2137;-40
2022/01/25 03:39:11;;;;;;;;;;;22.50;29.90;;;;;;466824;254;1206;-40
2022/01/25 03:41:12;;;;;;;;;;;22.50;30.00;;;;;;466694;254;1168;-40
2022/01/25 03:43:14;;;;;;;;;;;22.50;30.00;;;;;;466764;254;1064;-40
2022/01/25 03:45:19;;;;;;;;;;;22.50;30.00;;;;;;466628;254;2346;-40
2022/01/25 03:47:19;;;;;;;;;;;22.50;29.90;;;;;;466257;255;2539;-40
2022/01/25 03:51:37;;;;;;;;;;;22.50;29.90;;;;;;466565;255;1376;-39
2022/01/25 03:53:38;;;;;;;;;;;22.50;29.90;;;;;;466645;254;1088;-40
2022/01/25 03:55:39;;;;;;;;;;;22.60;30.00;;;;;;466649;254;1053;-40
2022/01/25 03:57:41;;;;;;;;;;;22.60;30.00;;;;;;466641;254;2201;-40
2022/01/25 03:59:42;;;;;;;;;;;22.50;29.90;;;;;;466906;254;1193;-40
2022/01/25 04:01:43;;;;;;;;;;;22.50;29.90;;;;;;466760;254;1083;-40
2022/01/25 04:03:53;;;;;;;;;;;22.60;30.00;;;;;;466716;254;1262;-40
2022/01/25 04:05:51;;;;;;;;;;;22.60;29.90;;;;;;466398;255;2191;-39
2022/01/25 04:07:52;;;;;;;;;;;22.60;29.90;;;;;;466621;255;2215;-40
2022/01/25 04:09:52;;;;;;;;;;;22.60;30.00;;;;;;466653;255;2064;-40
2022/01/25 04:11:53;;;;;;;;;;;22.60;29.90;;;;;;466668;254;1329;-40
2022/01/25 04:13:57;;;;;;;;;;;22.60;29.90;;;;;;466757;254;1322;-40
2022/01/25 04:15:57;;;;;;;;;;;22.60;29.90;;;;;;457828;258;1982;-40
2022/01/25 04:18:03;;;;;;;;;;;22.60;29.90;;;;;;463885;255;2150;-40
2022/01/25 04:20:13;;;;;;;;;;;22.60;29.90;;;;;;466525;255;2240;-40
2022/01/25 04:24:56;;;;;;;;;;;22.60;29.90;;;;;;467110;254;1071;-40
2022/01/25 04:26:45;;;;;;;;;;;22.60;29.90;;;;;;465972;255;2258;-40
2022/01/25 04:28:46;;;;;;;;;;;22.60;29.90;;;;;;466693;254;1099;-40
2022/01/25 04:30:48;;;;;;;;;;;22.60;29.90;;;;;;466729;254;1226;-40
2022/01/25 04:32:54;;;;;;;;;;;22.70;29.90;;;;;;466766;254;1105;-40
2022/01/25 04:35:08;;;;;;;;;;;22.70;29.90;;;;;;466502;255;1741;-40
2022/01/25 04:48:52;;;;;;;;;;;22.60;29.90;;;;;;465798;255;1583;-40
2022/01/25 04:50:58;;;;;;;;;;;22.70;29.90;;;;;;466696;255;1762;-40
2022/01/25 04:52:55;;;;;;;;;;;22.70;29.90;;;;;;465955;255;1445;-40
2022/01/25 04:54:56;;;;;;;;;;;22.70;29.90;;;;;;466359;255;1872;-40
2022/01/25 04:56:58;;;;;;;;;;;22.70;29.80;;;;;;466642;255;2203;-40
2022/01/25 04:59:00;;;;;;;;;;;22.70;29.80;;;;;;466578;255;2197;-40
2022/01/25 05:00:55;;;;;;;;;;;22.70;29.90;;;;;;466267;255;2203;-40
2022/01/25 05:03:05;;;;;;;;;;;22.70;29.80;;;;;;467086;254;1073;-40
2022/01/25 05:05:02;;;;;;;;;;;22.70;29.90;;;;;;466032;255;2387;-40
2022/01/25 05:07:09;;;;;;;;;;;22.70;29.90;;;;;;466306;255;2431;-40
2022/01/25 05:09:08;;;;;;;;;;;22.70;29.90;;;;;;465975;255;1392;-40
2022/01/25 05:11:12;;;;;;;;;;;22.70;29.90;;;;;;466847;255;1575;-40
2022/01/25 05:13:17;;;;;;;;;;;22.70;29.90;;;;;;466678;255;2060;-40
2022/01/25 05:15:27;;;;;;;;;;;22.70;29.80;;;;;;466373;255;2321;-40
2022/01/25 05:17:33;;;;;;;;;;;22.70;29.90;;;;;;466370;255;2188;-40
2022/01/25 05:22:05;;;;;;;;;;;22.70;29.90;;;;;;466643;255;1060;-40
2022/01/25 05:24:06;;;;;;;;;;;22.70;29.90;;;;;;466531;255;1535;-40
2022/01/25 05:26:07;;;;;;;;;;;22.80;29.90;;;;;;466623;254;1144;-40
2022/01/25 05:28:08;;;;;;;;;;;22.80;29.90;;;;;;466950;254;995;-40
2022/01/25 05:30:09;;;;;;;;;;;22.80;29.90;;;;;;466902;254;1283;-40
2022/01/25 05:32:11;;;;;;;;;;;22.80;29.90;;;;;;466663;254;1159;-40
2022/01/25 05:34:12;;;;;;;;;;;22.80;29.90;;;;;;466542;254;1062;-40
2022/01/25 05:36:15;;;;;;;;;;;22.80;29.80;;;;;;466438;254;1118;-40
2022/01/25 05:38:15;;;;;;;;;;;22.80;29.90;;;;;;466837;255;2189;-40
2022/01/25 05:40:27;;;;;;;;;;;22.80;29.80;;;;;;466792;254;1116;-40
2022/01/25 05:42:41;;;;;;;;;;;22.80;29.80;;;;;;465801;255;2029;-40
2022/01/25 05:44:38;;;;;;;;;;;22.80;29.80;;;;;;465628;255;2121;-40
2022/01/25 05:46:35;;;;;;;;;;;22.80;29.80;;;;;;465783;255;1542;-40
2022/01/25 05:48:32;;;;;;;;;;;22.80;29.80;;;;;;466283;255;1897;-40
2022/01/25 05:50:34;;;;;;;;;;;22.80;29.80;;;;;;466674;254;1043;-40
2022/01/25 05:52:35;;;;;;;;;;;22.80;29.90;;;;;;466458;254;1145;-40
2022/01/25 05:54:36;;;;;;;;;;;22.80;29.90;;;;;;466829;254;1081;-40
2022/01/25 05:56:38;;;;;;;;;;;22.80;29.80;;;;;;466450;254;1103;-40
2022/01/25 05:58:39;;;;;;;;;;;22.80;29.80;;;;;;466466;254;2157;-39
2022/01/25 06:00:40;;;;;;;;;;;22.80;29.80;;;;;;466589;254;1286;-40
2022/01/25 06:02:41;;;;;;;;;;;22.80;29.80;;;;;;466555;254;1210;-40
2022/01/25 06:04:43;;;;;;;;;;;22.80;29.80;;;;;;466476;254;1095;-40
2022/01/25 06:06:45;;;;;;;;;;;22.80;29.80;;;;;;466381;254;1178;-40
2022/01/25 06:08:46;;;;;;;;;;;22.90;29.80;;;;;;466510;254;1052;-40
2022/01/25 06:10:47;;;;;;;;;;;22.80;29.80;;;;;;466687;254;1054;-40
2022/01/25 06:12:48;;;;;;;;;;;22.90;29.80;;;;;;466474;254;1061;-40
2022/01/25 06:14:50;;;;;;;;;;;22.90;29.80;;;;;;466430;254;1131;-40
2022/01/25 06:16:51;;;;;;;;;;;22.90;29.80;;;;;;466426;254;1374;-40
2022/01/25 06:18:52;;;;;;;;;;;22.90;29.80;;;;;;466465;254;2126;-40
2022/01/25 06:20:54;;;;;;;;;;;22.90;29.90;;;;;;466855;254;1198;-40
2022/01/25 06:22:55;;;;;;;;;;;22.90;29.80;;;;;;466508;254;1080;-40
2022/01/25 06:24:56;;;;;;;;;;;22.80;29.80;;;;;;466519;254;1240;-39
2022/01/25 06:26:58;;;;;;;;;;;22.90;29.90;;;;;;466214;254;1425;-40
2022/01/25 06:29:00;;;;;;;;;;;22.90;29.80;;;;;;466218;254;1326;-40
2022/01/25 06:31:01;;;;;;;;;;;22.90;29.80;;;;;;466171;254;1276;-40
2022/01/25 06:33:03;;;;;;;;;;;22.90;29.80;;;;;;466423;254;1262;-40
2022/01/25 06:35:04;;;;;;;;;;;22.90;29.80;;;;;;466321;254;1081;-40
2022/01/25 06:37:05;;;;;;;;;;;22.90;29.80;;;;;;466378;254;1262;-40
2022/01/25 06:39:06;;;;;;;;;;;22.90;29.80;;;;;;466405;254;2134;-40
2022/01/25 06:41:09;;;;;;;;;;;22.90;29.80;;;;;;466314;254;1333;-40
2022/01/25 06:43:10;;;;;;;;;;;22.90;29.80;;;;;;466386;254;1655;-40
2022/01/25 06:45:15;;;;;;;;;;;22.90;29.80;;;;;;466430;254;1136;-40
2022/01/25 06:47:13;;;;;;;;;;;22.90;29.80;;;;;;466112;255;1385;-40
2022/01/25 06:49:14;;;;;;;;;;;22.90;29.80;;;;;;466183;254;1453;-40
2022/01/25 06:51:16;;;;;;;;;;;22.90;29.80;;;;;;466247;254;1151;-40
2022/01/25 06:53:18;;;;;;;;;;;22.90;29.80;;;;;;466208;254;1091;-40
2022/01/25 06:55:19;;;;;;;;;;;22.90;29.80;;;;;;466140;254;1383;-40
2022/01/25 06:57:20;;;;;;;;;;;22.90;29.80;;;;;;466302;254;1246;-40
2022/01/25 06:59:21;;;;;;;;;;;22.90;29.80;;;;;;466393;254;2138;-40
2022/01/25 07:01:23;;;;;;;;;;;22.90;29.80;;;;;;460751;254;1379;-40
2022/01/25 07:03:24;;;;;;;;;;;22.90;29.80;;;;;;463664;255;1084;-40
2022/01/25 07:05:25;;;;;;;;;;;22.90;29.80;;;;;;466376;254;1152;-40
2022/01/25 07:07:27;;;;;;;;;;;22.90;29.80;;;;;;466271;254;1217;-40
2022/01/25 07:09:29;;;;;;;;;;;22.90;29.80;;;;;;466118;254;1165;-40
2022/01/25 07:11:30;;;;;;;;;;;22.90;29.80;;;;;;466251;254;1526;-40
2022/01/25 07:13:31;;;;;;;;;;;22.90;29.70;;;;;;466012;254;1259;-40
2022/01/25 07:15:33;;;;;;;;;;;22.90;29.70;;;;;;466064;254;1073;-40
2022/01/25 07:17:34;;;;;;;;;;;22.90;29.70;;;;;;466174;254;1284;-40
2022/01/25 07:19:35;;;;;;;;;;;23.00;29.70;;;;;;466163;254;2196;-40
2022/01/25 07:21:37;;;;;;;;;;;23.00;29.60;;;;;;466259;254;1167;-40
2022/01/25 07:23:38;;;;;;;;;;;23.00;29.60;;;;;;466226;254;1105;-40
2022/01/25 07:25:39;;;;;;;;;;;23.00;29.60;;;;;;466066;254;1120;-40
2022/01/25 07:27:41;;;;;;;;;;;23.00;29.50;;;;;;466267;254;1265;-40
2022/01/25 07:29:42;;;;;;;;;;;23.00;29.60;;;;;;466231;254;1087;-40
2022/01/25 07:31:44;;;;;;;;;;;23.00;29.60;;;;;;466167;254;1165;-40
2022/01/25 07:33:45;;;;;;;;;;;23.00;29.60;;;;;;465965;254;2048;-40
2022/01/25 07:35:46;;;;;;;;;;;23.00;29.60;;;;;;465996;254;1301;-40
2022/01/25 07:37:48;;;;;;;;;;;23.00;29.70;;;;;;466027;254;1291;-39
2022/01/25 07:39:49;;;;;;;;;;;23.00;29.60;;;;;;466041;254;2190;-40
2022/01/25 07:41:50;;;;;;;;;;;23.00;29.60;;;;;;466047;254;1253;-40
2022/01/25 07:43:52;;;;;;;;;;;23.00;29.60;;;;;;466081;254;1292;-40
2022/01/25 07:45:54;;;;;;;;;;;23.00;29.80;;;;;;466050;254;1428;-40
2022/01/25 07:47:54;;;;;;;;;;;23.00;29.70;;;;;;465999;256;2495;-40
2022/01/25 07:49:56;;;;;;;;;;;23.00;29.70;;;;;;465987;254;1082;-40
2022/01/25 07:51:57;;;;;;;;;;;23.00;29.70;;;;;;466101;255;2250;-40
2022/01/25 07:53:59;;;;;;;;;;;23.10;29.70;;;;;;465816;254;1359;-40
2022/01/25 07:56:00;;;;;;;;;;;23.10;29.90;;;;;;466408;254;1105;-40
2022/01/25 07:58:01;;;;;;;;;;;23.10;29.80;;;;;;466160;254;1112;-40
2022/01/25 08:00:03;;;;;;;;;;;23.10;29.70;;;;;;466147;254;2138;-40
2022/01/25 08:02:04;;;;;;;;;;;23.10;29.80;;;;;;466021;254;1202;-40
2022/01/25 08:04:05;;;;;;;;;;;23.10;29.80;;;;;;466016;254;1128;-40
2022/01/25 08:06:07;;;;;;;;;;;23.00;29.90;;;;;;466018;254;1154;-40
2022/01/25 08:08:08;;;;;;;;;;;22.80;30.10;;;;;;465974;254;1091;-40
2022/01/25 08:10:09;;;;;;;;;;;22.60;30.50;;;;;;465961;254;1078;-40
2022/01/25 08:12:11;;;;;;;;;;;22.50;30.60;;;;;;465766;254;1306;-39
2022/01/25 08:14:13;;;;;;;;;;;22.40;30.70;;;;;;465737;254;2010;-40
2022/01/25 08:16:14;;;;;;;;;;;22.30;30.90;;;;;;466533;254;2452;-39
2022/01/25 08:18:15;;;;;;;;;;;22.20;31.00;;;;;;465762;254;1193;-40
2022/01/25 08:20:16;;;;;;;;;;;22.10;31.10;;;;;;465828;255;2197;-39
2022/01/25 08:22:18;;;;;;;;;;;22.10;31.10;;;;;;465914;254;1254;-39
2022/01/25 08:24:20;;;;;;;;;;;22.10;31.20;;;;;;465826;254;1216;-40
2022/01/25 08:26:21;;;;;;;;;;;22.10;31.20;;;;;;465829;254;1101;-40
2022/01/25 08:28:23;;;;;;;;;;;22.00;31.10;;;;;;465841;254;1268;-40
2022/01/25 08:30:24;;;;;;;;;;;22.10;31.20;;;;;;465956;254;1106;-40
2022/01/25 08:32:25;;;;;;;;;;;22.00;31.20;;;;;;462083;254;1265;-40
2022/01/25 08:34:27;;;;;;;;;;;22.00;31.20;;;;;;465464;255;1078;-40
2022/01/25 08:36:28;;;;;;;;;;;22.00;31.30;;;;;;465663;254;1121;-40
2022/01/25 08:38:29;;;;;;;;;;;22.00;31.30;;;;;;465938;254;1212;-39
2022/01/25 08:40:33;;;;;;;;;;;21.90;31.30;;;;;;465797;254;2200;-40
2022/01/25 08:42:32;;;;;;;;;;;21.90;31.30;;;;;;465702;255;1984;-40
2022/01/25 08:44:33;;;;;;;;;;;22.00;31.40;;;;;;465911;254;1070;-40
2022/01/25 08:46:35;;;;;;;;;;;21.90;31.40;;;;;;465899;254;1170;-40
2022/01/25 08:48:36;;;;;;;;;;;21.90;31.40;;;;;;466029;254;1211;-39
2022/01/25 08:50:37;;;;;;;;;;;21.90;31.30;;;;;;465916;254;1090;-40
2022/01/25 08:52:38;;;;;;;;;;;21.80;31.40;;;;;;465760;254;1267;-39
2022/01/25 08:54:40;;;;;;;;;;;21.80;31.40;;;;;;465685;254;1127;-40
2022/01/25 08:56:41;;;;;;;;;;;21.90;31.30;;;;;;465748;254;1112;-40
2022/01/25 08:58:43;;;;;;;;;;;21.80;31.30;;;;;;465903;255;2121;-40
2022/01/25 09:00:44;;;;;;;;;;;21.80;31.40;;;;;;465776;254;1268;-39
2022/01/25 09:02:45;;;;;;;;;;;21.80;31.40;;;;;;465747;254;1291;-39
2022/01/25 09:04:47;;;;;;;;;;;21.80;31.40;;;;;;465719;254;1146;-40
2022/01/25 09:06:48;;;;;;;;;;;21.80;31.30;;;;;;465707;254;1296;-39
2022/01/25 09:08:49;;;;;;;;;;;21.90;31.30;;;;;;465790;254;1144;-40
2022/01/25 09:10:57;;;;;;;;;;;21.80;31.30;;;;;;465755;254;1082;-40
2022/01/25 09:12:52;;;;;;;;;;;21.90;31.30;;;;;;465426;255;1256;-40
2022/01/25 09:14:54;;;;;;;;;;;21.80;31.30;;;;;;465752;254;1072;-40
2022/01/25 09:16:55;;;;;;;;;;;21.80;31.30;;;;;;465628;254;1155;-40
2022/01/25 09:18:56;;;;;;;;;;;21.80;31.30;;;;;;465683;254;2213;-40
2022/01/25 09:20:58;;;;;;;;;;;21.80;31.40;;;;;;465739;254;1050;-40
2022/01/25 09:22:59;;;;;;;;;;;21.80;31.40;;;;;;465659;254;1084;-40
2022/01/25 09:25:00;;;;;;;;;;;21.70;31.40;;;;;;465463;254;1227;-40
2022/01/25 09:27:04;;;;;;;;;;;21.70;31.40;;;;;;465590;254;1234;-40
2022/01/25 09:29:03;;;;;;;;;;;21.70;31.40;;;;;;465610;254;2116;-40
2022/01/25 09:31:05;;;;;;;;;;;21.70;31.50;;;;;;465484;254;1059;-39
2022/01/25 09:33:06;;;;;;;;;;;21.70;31.40;;;;;;465748;254;1865;-39
2022/01/25 09:35:07;;;;;;;;;;;21.70;31.40;;;;;;465730;254;1086;-40
2022/01/25 09:37:09;;;;;;;;;;;21.70;31.40;;;;;;465800;254;1168;-40
2022/01/25 09:39:10;;;;;;;;;;;21.60;31.40;;;;;;465934;254;2197;-39
2022/01/25 09:41:12;;;;;;;;;;;21.70;31.40;;;;;;465890;254;1381;-40
2022/01/25 09:43:13;;;;;;;;;;;21.70;31.30;;;;;;465890;254;1189;-39
2022/01/25 09:45:14;;;;;;;;;;;21.70;31.30;;;;;;465911;254;1405;-40
2022/01/25 09:47:16;;;;;;;;;;;21.60;31.40;;;;;;465907;254;1532;-39
2022/01/25 09:49:17;;;;;;;;;;;21.60;31.40;;;;;;465736;254;1455;-40
2022/01/25 09:51:18;;;;;;;;;;;21.60;31.40;;;;;;465690;254;1284;-39
2022/01/25 09:53:20;;;;;;;;;;;21.70;31.40;;;;;;465814;254;1142;-39
2022/01/25 09:55:21;;;;;;;;;;;21.60;31.30;;;;;;465754;254;1114;-40
2022/01/25 09:57:22;;;;;;;;;;;21.70;31.30;;;;;;465817;254;1380;-39
2022/01/25 09:59:26;;;;;;;;;;;21.70;31.30;;;;;;465955;254;2200;-40
2022/01/25 10:01:25;;;;;;;;;;;21.70;31.30;;;;;;465850;254;2240;-40
2022/01/25 10:03:31;;;;;;;;;;;21.60;31.30;;;;;;465723;254;1145;-40
2022/01/25 10:05:31;;;;;;;;;;;21.50;31.40;;;;;;465542;255;2195;-40
2022/01/25 10:07:29;;;;;;;;;;;21.60;31.50;;;;;;465660;255;1998;-39
2022/01/25 10:09:30;;;;;;;;;;;21.50;31.40;;;;;;465851;254;1311;-40
2022/01/25 10:11:32;;;;;;;;;;;21.60;31.40;;;;;;466144;254;1121;-40
2022/01/25 10:13:34;;;;;;;;;;;21.60;31.40;;;;;;465896;254;1099;-40
2022/01/25 10:15:34;;;;;;;;;;;21.50;31.30;;;;;;465831;254;2370;-40
2022/01/25 10:17:36;;;;;;;;;;;21.60;31.30;;;;;;465896;254;1129;-40
2022/01/25 10:19:40;;;;;;;;;;;21.60;31.30;;;;;;465965;254;2188;-40
2022/01/25 10:21:38;;;;;;;;;;;21.60;31.30;;;;;;465757;255;2129;-40
2022/01/25 10:23:41;;;;;;;;;;;21.60;31.30;;;;;;465783;254;1107;-40
2022/01/25 10:25:41;;;;;;;;;;;21.60;31.30;;;;;;465641;255;1492;-40
2022/01/25 10:28:02;;;;;;;;;;;21.60;31.30;;;;;;465693;254;1456;-40
2022/01/25 10:30:02;;;;;;;;;;;21.60;31.20;;;;;;465822;254;2041;-40
2022/01/25 10:32:05;;;;;;;;;;;21.60;31.20;;;;;;465989;254;1180;-39
2022/01/25 10:34:05;;;;;;;;;;;21.60;31.20;;;;;;465932;255;2184;-39
2022/01/25 10:36:06;;;;;;;;;;;21.50;31.20;;;;;;465918;254;1063;-39
2022/01/25 10:38:08;;;;;;;;;;;21.50;31.30;;;;;;465881;254;1285;-39
2022/01/25 10:40:09;;;;;;;;;;;21.50;31.30;;;;;;465135;254;2130;-39
2022/01/25 10:42:10;;;;;;;;;;;21.50;31.20;;;;;;465769;254;1289;-40
2022/01/25 10:44:12;;;;;;;;;;;21.50;31.30;;;;;;465714;254;1068;-39
2022/01/25 10:46:13;;;;;;;;;;;21.50;31.20;;;;;;465721;254;1140;-39
2022/01/25 10:48:14;;;;;;;;;;;21.50;31.20;;;;;;465666;254;1187;-39
2022/01/25 10:50:16;;;;;;;;;;;21.50;31.20;;;;;;465655;254;1134;-39
2022/01/25 10:52:17;;;;;;;;;;;21.50;31.30;;;;;;465724;254;1133;-40
2022/01/25 10:54:19;;;;;;;;;;;21.40;31.40;;;;;;465878;254;1107;-40
2022/01/25 10:56:20;;;;;;;;;;;21.50;31.30;;;;;;465885;254;1998;-40
2022/01/25 10:58:23;;;;;;;;;;;21.50;31.30;;;;;;465814;254;1235;-40
2022/01/25 11:00:24;;;;;;;;;;;21.50;31.30;;;;;;465588;254;2205;-39
2022/01/25 11:02:25;;;;;;;;;;;21.60;31.20;;;;;;465813;254;1334;-40
2022/01/25 11:04:26;;;;;;;;;;;21.60;31.20;;;;;;465592;254;1277;-39
2022/01/25 11:06:27;;;;;;;;;;;21.50;31.10;;;;;;465621;254;1206;-39
2022/01/25 11:08:29;;;;;;;;;;;21.50;31.30;;;;;;465743;254;1115;-40
2022/01/25 11:10:30;;;;;;;;;;;21.40;31.40;;;;;;465777;254;1124;-40
2022/01/25 11:12:36;;;;;;;;;;;21.40;31.50;;;;;;465787;254;1167;-40
2022/01/25 11:14:53;;;;;;;;;;;21.40;31.60;;;;;;465758;255;1703;-40
2022/01/25 11:16:54;;;;;;;;;;;21.30;31.50;;;;;;465970;254;1280;-40
2022/01/25 11:18:56;;;;;;;;;;;21.30;31.50;;;;;;465917;254;1165;-40
2022/01/25 11:20:57;;;;;;;;;;;21.30;31.90;;;;;;465730;254;2193;-39
2022/01/25 11:22:58;;;;;;;;;;;21.30;31.50;;;;;;465927;254;1059;-40
2022/01/25 11:25:00;;;;;;;;;;;21.40;31.40;;;;;;465962;254;1085;-39
2022/01/25 11:27:01;;;;;;;;;;;21.40;31.40;;;;;;466086;254;1141;-39
2022/01/25 11:29:02;;;;;;;;;;;21.40;31.40;;;;;;465712;254;1067;-40
2022/01/25 11:31:04;;;;;;;;;;;21.40;31.30;;;;;;465811;254;1061;-40
2022/01/25 11:33:05;;;;;;;;;;;21.40;31.30;;;;;;465872;254;1076;-39
2022/01/25 11:35:07;;;;;;;;;;;21.40;31.30;;;;;;465969;254;1192;-40
2022/01/25 11:37:08;;;;;;;;;;;21.40;31.20;;;;;;465974;254;1091;-40
2022/01/25 11:39:09;;;;;;;;;;;21.40;31.30;;;;;;465748;254;1060;-40
2022/01/25 11:41:11;;;;;;;;;;;21.40;31.40;;;;;;465708;254;2137;-40
2022/01/25 11:43:12;;;;;;;;;;;21.40;31.50;;;;;;465694;254;1480;-40
2022/01/25 11:45:14;;;;;;;;;;;21.40;31.40;;;;;;465805;254;1079;-40
2022/01/25 11:47:16;;;;;;;;;;;21.40;31.50;;;;;;465842;254;1367;-40
2022/01/25 11:49:17;;;;;;;;;;;21.40;31.50;;;;;;465919;254;2185;-40
2022/01/25 11:51:18;;;;;;;;;;;21.40;31.50;;;;;;465878;254;2268;-40
2022/01/25 11:53:19;;;;;;;;;;;21.40;31.40;;;;;;466037;254;1127;-40
2022/01/25 11:55:20;;;;;;;;;;;21.40;31.50;;;;;;465972;254;1074;-40
2022/01/25 11:57:21;;;;;;;;;;;21.30;31.50;;;;;;465902;254;1420;-40
2022/01/25 11:59:23;;;;;;;;;;;21.40;31.60;;;;;;465697;254;1481;-40
2022/01/25 12:01:24;;;;;;;;;;;21.30;31.50;;;;;;465749;254;2196;-39
2022/01/25 12:03:26;;;;;;;;;;;21.40;31.60;;;;;;465807;254;1090;-40
2022/01/25 12:05:27;;;;;;;;;;;21.30;31.50;;;;;;465817;254;1356;-40
2022/01/25 12:07:35;;;;;;;;;;;21.30;31.60;;;;;;465794;254;1240;-40
2022/01/25 12:09:42;;;;;;;;;;;21.40;31.50;;;;;;465315;255;2209;-40
2022/01/25 12:11:37;;;;;;;;;;;21.40;31.50;;;;;;465088;255;2079;-39
2022/01/25 12:13:36;;;;;;;;;;;21.30;31.50;;;;;;465736;255;1819;-39
2022/01/25 12:15:38;;;;;;;;;;;21.40;31.50;;;;;;465834;254;1394;-40
2022/01/25 12:17:39;;;;;;;;;;;21.40;31.50;;;;;;465762;254;1233;-40
2022/01/25 12:19:44;;;;;;;;;;;21.40;31.50;;;;;;465936;254;1145;-40
2022/01/25 12:21:42;;;;;;;;;;;21.40;31.40;;;;;;465789;255;2197;-39
2022/01/25 12:23:46;;;;;;;;;;;21.40;31.40;;;;;;465642;254;1090;-40
2022/01/25 12:25:52;;;;;;;;;;;21.40;31.40;;;;;;465438;255;2193;-40
2022/01/25 12:27:53;;;;;;;;;;;21.40;31.40;;;;;;465471;255;2147;-39
2022/01/25 12:29:53;;;;;;;;;;;21.30;31.40;;;;;;465729;254;2384;-40
2022/01/25 12:31:54;;;;;;;;;;;21.40;31.40;;;;;;465731;255;1079;-40
2022/01/25 12:33:56;;;;;;;;;;;21.40;31.50;;;;;;465603;254;1096;-40
2022/01/25 12:35:59;;;;;;;;;;;21.30;31.50;;;;;;465592;254;1211;-40
2022/01/25 12:37:58;;;;;;;;;;;21.30;31.60;;;;;;465488;255;1793;-40
2022/01/25 12:39:59;;;;;;;;;;;21.30;31.50;;;;;;465745;254;2228;-40
2022/01/25 12:42:01;;;;;;;;;;;21.30;31.50;;;;;;465734;254;1068;-39
2022/01/25 12:44:02;;;;;;;;;;;21.30;31.50;;;;;;465941;254;1143;-40
2022/01/25 12:46:03;;;;;;;;;;;21.30;31.60;;;;;;465925;254;1080;-40
2022/01/25 12:48:05;;;;;;;;;;;21.30;31.50;;;;;;465792;254;1429;-40
2022/01/25 12:50:06;;;;;;;;;;;21.30;31.50;;;;;;462188;254;1301;-39
2022/01/25 12:52:07;;;;;;;;;;;21.30;31.50;;;;;;456763;257;1133;-39
2022/01/25 12:54:09;;;;;;;;;;;21.30;31.50;;;;;;464944;255;1087;-39
2022/01/25 12:56:10;;;;;;;;;;;21.20;31.60;;;;;;465814;254;1221;-40
2022/01/25 12:58:12;;;;;;;;;;;21.20;31.70;;;;;;465894;254;1275;-40